Forside
METAR-TAF:

METAR-TAF

Lufthavne :

Des Moines, Iowa, USA

Breddekreds: 41-32-16N, længdekreds: 093-39-58W, højde: 291 m

Aktuelle vejr

Denne rapport blev lavet for 28 minutter siden, kl. 12:54 UTC
Vind 7 kt fra nordøst
Temperatur 8°C
Fugtighed 66%
Tryk 1027 hPa
Sigt: 16.1 km
Nogle få skyer i en højde af 22000 ft
Spredte skyer i en højde af 25000 ft
Overskyet i en højde af 30000 ft

METAR: KDSM 111254Z 05007KT 10SM FEW220 SCT250 OVC300 08/02 A3033 RMK AO2 SLP274 T00830017

Tid: 08:22 (13:22 UTC)

Vejrudsigter

Denne rapport blev lavet for 1 time og 59 minutter siden, kl. 11:23 UTC
Foreløbig gælder fra 11 på 12 UTC til 12 på 12 UTC
Vind 8 kt fra østnordøst
Sigt: 10 km
Spredte skyer i en højde af 25000 ft

TAF: KDSM 111123Z 1112/1212 07008KT P6SM SCT250

Vejrobservationer og prognoser fra mere end 4000 lufthavne (METAR og TAF).

De gule og røde prikker repræsenterer de meteorologiske stationer.

Flyt musen over at se navnet på stationen.

Så klik over at se vejr observationer og prognoser.

At skifte det kort: Klik på de grønne knapper med et sort kors for at zoome ind; på den grønne knap med en bindestreg for at zoome ud; eller på de grønne pile for tilstødende kort.


METAR-TAF: